createdAt,value
2023-03-23T15:58:22.686Z,5.93
2023-03-23T16:00:49.650Z,4.88
2023-03-23T16:03:25.275Z,4.15
2023-03-23T16:05:52.121Z,4.68
2023-03-23T16:08:19.195Z,4.95
2023-03-23T16:10:46.122Z,4.45
2023-03-23T16:13:13.220Z,4.40
2023-03-23T16:15:40.022Z,4.35
2023-03-23T16:18:07.226Z,4.90
2023-03-23T16:20:34.106Z,4.35
2023-03-23T16:23:01.189Z,4.38
2023-03-23T16:25:28.045Z,4.72
2023-03-23T16:27:55.130Z,4.72
2023-03-23T16:30:24.643Z,4.65
2023-03-23T16:32:52.001Z,5.50
2023-03-23T16:35:19.251Z,5.63
2023-03-23T16:37:51.669Z,6.72
2023-03-23T16:40:34.789Z,6.03
2023-03-23T16:43:01.979Z,6.75
2023-03-23T16:45:43.897Z,6.43
2023-03-23T16:50:38.314Z,6.45
2023-03-23T16:53:06.684Z,5.97
2023-03-23T16:55:34.065Z,6.05
2023-03-23T16:58:15.507Z,6.90
2023-03-23T17:00:43.970Z,6.65
2023-03-23T17:03:11.472Z,6.78
2023-03-23T17:05:38.387Z,6.55
2023-03-23T17:08:06.053Z,6.82
2023-03-23T17:10:32.949Z,7.28
2023-03-23T17:13:00.250Z,7.43
2023-03-23T17:15:27.076Z,8.25
2023-03-23T17:17:55.389Z,8.00
2023-03-23T17:20:23.046Z,8.75
2023-03-23T17:22:50.397Z,10.38
2023-03-23T17:25:17.180Z,10.35
2023-03-23T17:27:44.336Z,11.82
2023-03-23T17:30:11.674Z,14.13
2023-03-23T17:32:39.153Z,15.98
2023-03-23T17:35:06.591Z,17.30
2023-03-23T17:37:34.003Z,17.92
2023-03-23T17:40:00.774Z,18.90
2023-03-23T17:42:28.005Z,19.75
2023-03-23T17:44:54.814Z,21.92
2023-03-23T17:47:22.276Z,22.70
2023-03-23T17:49:49.082Z,23.63
2023-03-23T17:52:16.166Z,23.25
2023-03-23T17:54:42.955Z,24.73
2023-03-23T17:57:10.496Z,25.42
2023-03-23T17:59:37.370Z,24.65
2023-03-23T18:02:04.512Z,25.15
2023-03-23T18:04:31.497Z,25.38
2023-03-23T18:06:58.678Z,26.98
2023-03-23T18:09:25.817Z,28.30
2023-03-23T18:11:53.148Z,28.85
2023-03-23T18:14:20.302Z,30.27
2023-03-23T18:16:47.717Z,33.25
2023-03-23T18:19:14.563Z,32.40
2023-03-23T18:21:42.539Z,33.38
2023-03-23T18:24:10.705Z,33.47
2023-03-23T18:26:38.069Z,32.45
2023-03-23T18:29:04.888Z,32.13
2023-03-23T18:31:32.917Z,30.98
2023-03-23T18:33:59.984Z,30.85
2023-03-23T18:36:27.392Z,31.00
2023-03-23T18:38:56.287Z,31.00
2023-03-23T18:41:23.602Z,30.83
2023-03-23T18:43:50.402Z,32.00
2023-03-23T18:46:17.646Z,33.17
2023-03-23T18:48:44.509Z,32.85
2023-03-23T18:51:11.668Z,35.13
2023-03-23T18:53:38.548Z,33.90
2023-03-23T18:56:08.448Z,33.00
2023-03-23T18:58:35.269Z,32.45
2023-03-23T19:01:04.234Z,31.73
2023-03-23T19:03:31.173Z,32.53
2023-03-23T19:05:59.630Z,32.97
2023-03-23T19:08:27.826Z,30.42
2023-03-23T19:11:01.010Z,29.85
2023-03-23T19:13:29.106Z,29.05
2023-03-23T19:15:56.422Z,29.20
2023-03-23T19:18:23.376Z,28.95
2023-03-23T19:23:21.732Z,26.88
2023-03-23T19:25:48.916Z,25.10
2023-03-23T19:30:46.902Z,23.95
2023-03-23T19:33:14.214Z,24.10
2023-03-23T19:35:41.526Z,22.30
2023-03-23T19:38:08.556Z,20.73
2023-03-23T19:40:42.137Z,20.83
2023-03-23T19:43:09.844Z,20.30
2023-03-23T19:45:37.227Z,21.23
2023-03-23T19:48:04.274Z,21.38
2023-03-23T19:50:33.354Z,19.08
2023-03-23T19:53:00.713Z,19.42
2023-03-23T19:55:27.970Z,18.35
2023-03-23T19:57:55.234Z,18.23
2023-03-23T20:00:24.474Z,17.70
2023-03-23T20:02:51.985Z,15.25
2023-03-23T20:05:19.155Z,15.63
2023-03-23T20:07:51.410Z,13.73
2023-03-23T20:10:19.014Z,14.23
2023-03-23T20:12:46.627Z,13.15
2023-03-23T20:15:13.969Z,12.55
2023-03-23T20:17:41.235Z,11.43
2023-03-23T20:20:10.487Z,10.23
2023-03-23T20:22:37.718Z,9.27
2023-03-23T20:25:05.407Z,10.02
2023-03-23T20:27:32.513Z,8.63
2023-03-23T20:29:59.680Z,8.35
2023-03-23T20:32:26.554Z,8.02
2023-03-23T20:34:53.716Z,7.18
2023-03-23T20:37:20.917Z,6.80
2023-03-23T20:39:48.862Z,7.78
2023-03-23T20:42:15.764Z,6.68
2023-03-23T20:44:42.981Z,6.22
2023-03-23T20:47:10.517Z,6.10
2023-03-23T20:49:38.380Z,6.18
2023-03-23T20:52:06.033Z,6.28
2023-03-23T20:54:33.341Z,6.00
2023-03-23T20:57:00.450Z,5.70
2023-03-23T20:59:27.902Z,5.80
2023-03-23T21:01:54.852Z,5.85
2023-03-23T21:04:23.431Z,5.60
2023-03-23T21:06:51.760Z,5.85
2023-03-23T21:09:19.424Z,6.30
2023-03-23T21:11:46.579Z,5.95
2023-03-23T21:14:13.737Z,6.32
2023-03-23T21:16:41.416Z,5.80
2023-03-23T21:19:09.120Z,6.03
2023-03-23T21:21:36.079Z,5.53
2023-03-23T21:24:03.391Z,7.35
2023-03-23T21:26:30.398Z,7.10
2023-03-23T21:29:00.063Z,7.28
2023-03-23T21:31:30.679Z,8.00
2023-03-23T21:33:58.523Z,7.90
2023-03-23T21:36:26.719Z,8.65
2023-03-23T21:38:53.934Z,8.05
2023-03-23T21:41:20.933Z,8.38
2023-03-23T21:43:48.145Z,8.73
2023-03-23T21:46:18.281Z,9.48
2023-03-23T21:48:51.444Z,9.50
2023-03-23T21:51:37.448Z,8.80
2023-03-23T21:54:04.618Z,8.23
2023-03-23T21:56:31.420Z,9.23
2023-03-23T21:58:58.599Z,9.02
2023-03-23T22:01:25.510Z,8.40
2023-03-23T22:03:52.756Z,8.88
2023-03-23T22:06:26.251Z,8.18
2023-03-23T22:08:53.774Z,8.05
2023-03-23T22:11:25.502Z,8.13
2023-03-23T22:13:53.813Z,8.05
2023-03-23T22:16:21.195Z,8.15
2023-03-23T22:18:48.751Z,8.45
2023-03-23T22:21:16.219Z,7.88
2023-03-23T22:23:44.123Z,8.00
2023-03-23T22:26:12.219Z,7.90
2023-03-23T22:28:39.901Z,7.63
2023-03-23T22:31:09.692Z,7.28
2023-03-23T22:33:37.112Z,8.50
2023-03-23T22:36:06.476Z,7.80
2023-03-23T22:38:34.764Z,7.40
2023-03-23T22:41:02.595Z,8.13
2023-03-23T22:43:29.761Z,8.65
2023-03-23T22:45:56.817Z,7.68
2023-03-23T22:48:24.894Z,7.68
2023-03-23T22:50:51.742Z,7.53
2023-03-23T22:53:18.995Z,7.22
2023-03-23T22:55:48.172Z,7.93
2023-03-23T22:58:15.567Z,7.63
2023-03-23T23:00:48.109Z,8.93
2023-03-23T23:03:16.465Z,8.32
2023-03-23T23:05:48.442Z,8.13
2023-03-23T23:08:17.729Z,7.70
2023-03-23T23:10:46.567Z,7.78
2023-03-23T23:13:14.069Z,7.28
2023-03-23T23:15:42.633Z,7.75
2023-03-23T23:18:10.316Z,6.75
2023-03-23T23:20:37.648Z,7.35
2023-03-23T23:23:05.072Z,7.32
2023-03-23T23:25:32.216Z,7.20
2023-03-23T23:28:00.896Z,6.65
2023-03-23T23:30:28.432Z,7.65
2023-03-23T23:32:56.773Z,7.65
2023-03-23T23:35:23.906Z,7.50
2023-03-23T23:37:51.022Z,6.90
2023-03-23T23:40:18.067Z,7.93
2023-03-23T23:42:46.848Z,6.88
2023-03-23T23:45:13.969Z,7.05
2023-03-23T23:47:41.812Z,7.18
2023-03-23T23:50:10.684Z,6.18
2023-03-23T23:52:38.060Z,6.78
2023-03-23T23:55:06.675Z,6.63
2023-03-23T23:57:34.049Z,6.28
